Time;durP1;ratioP1;P1;durP2;ratioP2;P2;SDS_P1;SDS_P2;PMS_P1;PMS_P2;Temp;Humidity;BMP_temperature;BMP_pressure;BME280_temperature;BME280_humidity;BME280_pressure;Samples;Min_cycle;Max_cycle;Signal;HPM_P1;HPM_P2
2021/10/03 00:02:05;;;;;;;9.68;7.30;;;;;;;13.70;86.05;101626.50;6389836;27;20469;-71
2021/10/03 00:05:12;;;;;;;11.35;7.57;;;;;;;13.66;85.94;101608.78;6390425;27;20188;-71
2021/10/03 00:08:18;;;;;;;15.30;7.30;;;;;;;13.78;85.45;101612.53;6389760;27;20185;-71
2021/10/03 00:11:22;;;;;;;12.20;7.82;;;;;;;13.76;85.46;101620.13;6390275;27;20291;-70
2021/10/03 00:14:26;;;;;;;11.32;6.88;;;;;;;13.84;85.32;101615.47;6389108;27;20266;-71
2021/10/03 00:17:32;;;;;;;12.95;7.47;;;;;;;13.76;85.65;101613.81;6389886;27;20182;-71
2021/10/03 00:20:37;;;;;;;13.68;7.18;;;;;;;13.84;85.36;101609.97;6390336;27;20182;-71
2021/10/03 00:23:41;;;;;;;10.30;7.32;;;;;;;13.90;85.12;101609.06;6389984;27;20230;-71
2021/10/03 00:26:46;;;;;;;8.25;7.45;;;;;;;13.81;85.59;101601.09;6390251;27;20182;-71
2021/10/03 00:29:50;;;;;;;9.70;7.10;;;;;;;13.80;86.41;101593.09;6371963;27;20197;-71
2021/10/03 00:32:55;;;;;;;11.23;7.43;;;;;;;13.86;85.69;101592.25;6388616;27;20571;-71
2021/10/03 00:36:00;;;;;;;11.18;7.65;;;;;;;13.76;86.42;101592.69;6389598;27;20182;-71
2021/10/03 00:39:04;;;;;;;12.77;7.60;;;;;;;13.73;86.64;101587.69;6388698;27;20232;-71
2021/10/03 00:42:08;;;;;;;9.85;7.60;;;;;;;13.82;86.13;101586.34;6389897;27;20189;-70
2021/10/03 00:45:16;;;;;;;10.70;7.63;;;;;;;13.79;86.69;101574.97;6388434;27;20230;-72
2021/10/03 00:48:21;;;;;;;9.10;8.02;;;;;;;13.77;87.13;101572.44;6389439;27;20181;-71
2021/10/03 00:51:25;;;;;;;11.90;7.07;;;;;;;13.73;87.17;101565.75;6389267;27;20181;-71
2021/10/03 00:54:30;;;;;;;17.10;7.65;;;;;;;13.82;86.78;101567.13;6389506;27;20276;-71
2021/10/03 00:57:34;;;;;;;12.57;7.97;;;;;;;13.84;86.93;101544.16;6388085;27;20378;-71
2021/10/03 01:00:40;;;;;;;14.18;8.18;;;;;;;13.86;86.72;101553.00;6389370;27;20182;-71
2021/10/03 01:03:46;;;;;;;11.85;7.70;;;;;;;13.82;86.98;101553.44;6387335;27;20470;-71
2021/10/03 01:06:51;;;;;;;14.07;7.63;;;;;;;13.75;87.60;101541.66;6388027;27;20182;-71
2021/10/03 01:09:56;;;;;;;11.90;7.93;;;;;;;13.84;87.20;101538.66;6387844;27;20407;-71
2021/10/03 01:13:05;;;;;;;13.23;8.27;;;;;;;13.82;87.16;101514.19;6388489;27;20237;-70
2021/10/03 01:16:12;;;;;;;14.50;8.05;;;;;;;13.80;87.38;101521.78;6388814;27;20188;-71
2021/10/03 01:19:17;;;;;;;13.30;7.57;;;;;;;13.73;88.22;101531.97;6389082;27;20189;-71
2021/10/03 01:22:23;;;;;;;11.10;7.88;;;;;;;13.85;87.36;101512.91;6387589;27;20473;-70
2021/10/03 01:25:27;;;;;;;13.75;8.23;;;;;;;13.69;88.31;101509.63;6388871;27;20182;-70
2021/10/03 01:28:32;;;;;;;15.43;8.48;;;;;;;13.67;88.55;101506.28;6387560;27;20346;-72
2021/10/03 01:31:36;;;;;;;14.68;8.27;;;;;;;13.68;88.90;101513.44;6387455;27;20478;-71
2021/10/03 01:34:41;;;;;;;14.43;8.40;;;;;;;13.70;88.80;101505.00;6387782;27;20274;-72
2021/10/03 01:37:49;;;;;;;15.07;8.73;;;;;;;13.65;89.31;101516.63;6384217;27;20241;-71
2021/10/03 01:40:54;;;;;;;19.30;9.10;;;;;;;13.74;88.96;101523.50;6362859;28;20193;-72
2021/10/03 01:43:58;;;;;;;13.23;9.80;;;;;;;13.70;89.19;101526.94;6361909;28;20469;-72
2021/10/03 01:47:02;;;;;;;16.27;8.88;;;;;;;13.62;89.58;101528.03;6362850;28;20182;-72
2021/10/03 01:50:08;;;;;;;13.88;8.98;;;;;;;13.72;89.36;101533.03;6362699;28;20186;-71
2021/10/03 01:53:19;;;;;;;21.63;10.18;;;;;;;13.86;88.48;101536.53;6362627;28;20182;-72
2021/10/03 01:56:23;;;;;;;13.07;9.57;;;;;;;13.81;88.62;101535.28;6362463;28;20182;-72
2021/10/03 01:59:27;;;;;;;18.70;10.55;;;;;;;13.71;89.38;101529.44;6363019;28;20182;-71
2021/10/03 02:02:31;;;;;;;17.77;9.82;;;;;;;13.65;90.08;101526.75;6361644;28;20217;-71
2021/10/03 02:05:38;;;;;;;15.50;9.55;;;;;;;13.73;89.30;101527.34;6362962;28;20253;-71
2021/10/03 02:08:44;;;;;;;17.10;9.85;;;;;;;13.71;89.91;101531.38;6361589;28;20214;-71
2021/10/03 02:11:50;;;;;;;15.65;10.48;;;;;;;13.67;89.99;101522.72;6361371;28;20209;-71
2021/10/03 02:14:54;;;;;;;19.15;11.10;;;;;;;13.66;90.38;101521.03;6362177;28;20401;-71
2021/10/03 02:17:58;;;;;;;19.20;10.98;;;;;;;13.76;89.62;101521.38;6367761;28;20182;-72
2021/10/03 02:21:04;;;;;;;16.42;10.23;;;;;;;13.71;89.88;101502.00;6366456;28;20265;-72
2021/10/03 02:24:12;;;;;;;16.13;11.27;;;;;;;13.67;90.35;101506.28;6366890;28;20194;-72
2021/10/03 02:27:16;;;;;;;21.83;11.02;;;;;;;13.72;90.38;101505.59;6367243;28;20190;-71
2021/10/03 02:30:21;;;;;;;16.13;11.13;;;;;;;13.72;90.38;101503.72;6366224;28;20447;-71
2021/10/03 02:33:25;;;;;;;17.95;11.30;;;;;;;13.85;89.06;101485.47;6367108;28;20182;-72
2021/10/03 02:36:29;;;;;;;16.83;11.10;;;;;;;13.62;89.63;101459.50;6366549;28;20261;-72
2021/10/03 02:39:35;;;;;;;18.55;11.50;;;;;;;13.65;89.18;101437.13;6340676;28;20234;-72
2021/10/03 02:42:39;;;;;;;23.52;12.30;;;;;;;13.71;88.74;101447.16;6340468;28;20403;-72
2021/10/03 02:45:46;;;;;;;19.73;12.23;;;;;;;13.76;88.41;101441.84;6341789;28;20189;-72
2021/10/03 02:48:51;;;;;;;16.92;12.45;;;;;;;13.75;88.51;101451.16;6340330;28;20410;-71
2021/10/03 02:51:55;;;;;;;24.02;12.93;;;;;;;13.68;88.89;101442.16;6340493;28;20512;-72
2021/10/03 02:55:01;;;;;;;23.63;12.57;;;;;;;13.72;88.62;101446.13;6341350;28;20273;-71
2021/10/03 02:58:06;;;;;;;22.77;12.75;;;;;;;13.69;88.88;101452.03;6341346;28;20183;-71
2021/10/03 03:01:13;;;;;;;25.05;12.75;;;;;;;13.77;88.70;101451.78;6340095;28;20444;-72
2021/10/03 03:04:17;;;;;;;23.00;13.27;;;;;;;13.77;88.57;101451.78;6341310;28;20233;-72
2021/10/03 03:07:21;;;;;;;22.13;13.07;;;;;;;13.66;89.19;101455.22;6339933;28;20472;-72
2021/10/03 03:10:27;;;;;;;23.88;13.48;;;;;;;13.75;89.00;101459.38;6341232;28;20187;-72
2021/10/03 03:13:31;;;;;;;21.50;13.57;;;;;;;13.75;88.64;101462.13;6339812;28;20202;-72
2021/10/03 03:16:43;;;;;;;23.98;14.90;;;;;;;13.68;88.89;101466.84;6340965;28;20206;-72
2021/10/03 03:19:47;;;;;;;23.05;13.85;;;;;;;13.81;88.45;101471.38;6340609;28;20190;-72
2021/10/03 03:22:51;;;;;;;21.58;14.27;;;;;;;13.84;88.29;101456.38;6340918;28;20183;-72
2021/10/03 03:25:56;;;;;;;25.35;14.52;;;;;;;13.75;88.73;101459.38;6339530;28;20474;-72
2021/10/03 03:29:01;;;;;;;23.20;14.00;;;;;;;13.79;88.99;101460.59;6338754;28;20500;-72
2021/10/03 03:32:06;;;;;;;26.90;15.38;;;;;;;13.80;89.27;101467.78;6340736;28;20183;-71
2021/10/03 03:35:12;;;;;;;23.95;14.60;;;;;;;13.85;89.07;101466.25;6339234;28;20514;-72
2021/10/03 03:38:18;;;;;;;24.50;14.88;;;;;;;13.90;89.23;101466.44;6348714;28;20233;-72
2021/10/03 03:41:23;;;;;;;21.52;14.55;;;;;;;13.93;89.08;101466.84;6366109;28;20254;-72
2021/10/03 03:44:28;;;;;;;23.65;13.95;;;;;;;13.82;89.83;101457.44;6364398;28;20488;-72
2021/10/03 03:47:32;;;;;;;28.88;14.88;;;;;;;13.82;90.17;101490.34;6364371;28;20436;-72
2021/10/03 03:50:37;;;;;;;27.42;14.45;;;;;;;13.87;90.35;101480.63;6364572;28;20182;-71
2021/10/03 03:53:41;;;;;;;28.05;14.88;;;;;;;13.78;91.09;101475.41;6364332;28;20435;-72
2021/10/03 03:56:47;;;;;;;22.65;14.77;;;;;;;13.89;90.62;101451.06;6365018;28;20212;-72
2021/10/03 03:59:51;;;;;;;26.23;15.00;;;;;;;13.88;90.52;101457.59;6365427;28;20182;-72
2021/10/03 04:02:56;;;;;;;22.40;14.82;;;;;;;13.86;91.24;101459.72;6364009;28;20189;-72
2021/10/03 04:06:00;;;;;;;29.00;17.25;;;;;;;13.87;90.79;101455.94;6364021;28;20268;-71
2021/10/03 04:09:06;;;;;;;35.92;19.23;;;;;;;13.86;90.99;101457.84;6365236;28;20186;-71
2021/10/03 04:12:12;;;;;;;31.05;18.52;;;;;;;13.85;91.42;101438.84;6365099;28;20250;-72
2021/10/03 04:15:16;;;;;;;32.13;17.70;;;;;;;13.84;91.03;101434.44;6363422;28;20216;-72
2021/10/03 04:18:20;;;;;;;25.65;16.48;;;;;;;13.81;91.21;101428.31;6363587;28;20186;-71
2021/10/03 04:21:24;;;;;;;30.45;16.23;;;;;;;13.85;91.19;101427.88;6363562;28;20437;-72
2021/10/03 04:24:28;;;;;;;26.77;15.18;;;;;;;13.80;91.27;101426.66;6363372;28;20370;-72
2021/10/03 04:27:34;;;;;;;25.33;15.10;;;;;;;13.95;91.05;101414.47;6364424;28;20249;-72
2021/10/03 04:30:38;;;;;;;30.65;16.02;;;;;;;13.68;92.59;101409.25;6363258;28;20213;-72
2021/10/03 04:33:42;;;;;;;31.38;16.98;;;;;;;13.85;91.85;101425.13;6363313;28;20462;-71
2021/10/03 04:36:47;;;;;;;28.00;15.90;;;;;;;13.83;92.03;101439.06;6363878;28;20216;-71
2021/10/03 04:39:52;;;;;;;29.30;16.42;;;;;;;13.82;92.08;101432.75;6362390;28;20237;-71
2021/10/03 04:42:57;;;;;;;25.13;16.88;;;;;;;13.64;92.87;101429.94;6364026;28;20250;-71
2021/10/03 04:46:01;;;;;;;29.67;16.20;;;;;;;13.76;92.45;101411.69;6363029;28;20218;-71
2021/10/03 04:49:05;;;;;;;30.38;16.38;;;;;;;13.68;93.06;101411.16;6362745;28;20518;-71
2021/10/03 04:52:10;;;;;;;33.20;16.77;;;;;;;13.71;92.33;101414.25;6363755;28;20189;-71
2021/10/03 04:55:14;;;;;;;33.67;16.55;;;;;;;13.63;92.15;101422.78;6363987;28;20209;-71
2021/10/03 04:58:20;;;;;;;28.23;16.15;;;;;;;13.69;91.84;101438.34;6362734;28;20259;-71
2021/10/03 05:01:24;;;;;;;32.83;17.98;;;;;;;13.70;92.04;101440.03;6363593;28;20227;-71
2021/10/03 05:04:28;;;;;;;35.42;17.75;;;;;;;13.64;91.92;101435.41;6362482;28;20186;-71
2021/10/03 05:07:32;;;;;;;31.70;16.55;;;;;;;13.66;92.10;101441.50;6362441;28;20355;-71
2021/10/03 05:10:36;;;;;;;25.98;15.82;;;;;;;13.60;92.30;101428.72;6362309;28;20213;-71
2021/10/03 05:13:42;;;;;;;28.65;17.60;;;;;;;13.66;91.67;101443.44;6362238;28;20362;-71
2021/10/03 05:16:47;;;;;;;28.15;16.15;;;;;;;13.74;90.99;101446.72;6362860;28;20206;-71
2021/10/03 05:19:52;;;;;;;33.28;16.40;;;;;;;13.74;91.17;101443.97;6362214;28;20415;-71
2021/10/03 05:22:56;;;;;;;28.08;15.75;;;;;;;13.67;91.42;101448.69;6363436;28;20214;-71
2021/10/03 05:26:00;;;;;;;31.67;16.15;;;;;;;13.62;92.06;101448.53;6362168;28;20429;-71
2021/10/03 05:29:06;;;;;;;24.58;15.52;;;;;;;13.64;92.26;101456.50;6362002;28;20186;-71
2021/10/03 05:32:13;;;;;;;26.90;15.63;;;;;;;13.67;92.02;101450.59;6363341;28;20183;-71
2021/10/03 05:35:18;;;;;;;32.55;16.38;;;;;;;13.67;92.05;101462.41;6361718;28;20476;-71
2021/10/03 05:38:22;;;;;;;30.02;16.55;;;;;;;13.73;91.85;101456.03;6361886;28;20230;-72
2021/10/03 05:41:26;;;;;;;26.83;16.38;;;;;;;13.59;92.66;101451.69;6362944;28;20189;-72
2021/10/03 05:44:32;;;;;;;29.10;15.93;;;;;;;13.66;92.18;101455.22;6362102;28;20182;-71
2021/10/03 05:47:36;;;;;;;28.45;16.35;;;;;;;13.71;91.33;101452.66;6361727;28;20473;-71
2021/10/03 05:50:41;;;;;;;29.38;16.40;;;;;;;13.70;91.29;101437.28;6362331;28;20219;-71
2021/10/03 05:53:45;;;;;;;27.75;15.70;;;;;;;13.62;91.24;101431.22;6361536;28;20354;-72
2021/10/03 05:56:49;;;;;;;30.55;16.25;;;;;;;13.67;91.88;101434.97;6362547;28;20476;-72
2021/10/03 05:59:55;;;;;;;30.70;15.48;;;;;;;13.66;90.84;101438.78;6361900;28;20220;-71
2021/10/03 06:02:59;;;;;;;32.75;17.23;;;;;;;13.65;90.98;101447.22;6362435;28;20182;-71
2021/10/03 06:06:03;;;;;;;28.50;16.23;;;;;;;13.65;91.33;101442.59;6362832;28;20236;-72
2021/10/03 06:09:08;;;;;;;25.92;16.02;;;;;;;13.67;91.16;101434.97;6362898;28;20182;-72
2021/10/03 06:12:13;;;;;;;25.98;16.20;;;;;;;13.61;91.61;101422.16;6362325;28;20191;-71
2021/10/03 06:15:19;;;;;;;26.10;15.88;;;;;;;13.62;91.50;101401.06;6361384;28;20369;-72
2021/10/03 06:18:23;;;;;;;28.13;16.83;;;;;;;13.62;91.66;101403.81;6362202;28;20206;-71
2021/10/03 06:21:27;;;;;;;26.77;16.42;;;;;;;13.57;92.26;101411.84;6362305;28;20183;-71
2021/10/03 06:24:32;;;;;;;30.10;16.88;;;;;;;13.63;91.70;101403.59;6362548;28;20189;-71
2021/10/03 06:27:36;;;;;;;34.80;17.13;;;;;;;13.50;92.31;101400.97;6361184;28;20519;-71
2021/10/03 06:30:41;;;;;;;31.88;16.33;;;;;;;13.54;92.60;101393.94;6361115;28;20448;-72
2021/10/03 06:33:45;;;;;;;31.17;16.75;;;;;;;13.56;92.23;101394.56;6360999;28;20408;-71
2021/10/03 06:36:49;;;;;;;38.33;17.30;;;;;;;13.55;92.82;101387.41;6359515;28;20329;-72
2021/10/03 06:39:53;;;;;;;32.90;17.58;;;;;;;13.64;92.10;101391.56;6357008;28;20257;-72
2021/10/03 06:42:58;;;;;;;29.48;17.58;;;;;;;13.57;92.29;101374.31;6362031;28;20249;-71
2021/10/03 06:46:03;;;;;;;29.00;16.83;;;;;;;13.58;92.79;101365.03;6361013;28;20182;-72
2021/10/03 06:49:08;;;;;;;31.08;18.02;;;;;;;13.53;93.07;101356.63;6362270;28;20188;-72
2021/10/03 06:52:13;;;;;;;30.30;17.70;;;;;;;13.56;93.08;101339.72;6361851;28;20243;-72
2021/10/03 06:55:18;;;;;;;34.42;17.65;;;;;;;13.58;92.76;101342.28;6361916;28;20245;-71
2021/10/03 06:58:22;;;;;;;34.42;18.35;;;;;;;13.51;92.87;101357.91;6360681;28;20509;-71
2021/10/03 07:01:28;;;;;;;31.27;19.23;;;;;;;13.49;93.21;101360.88;6361887;28;20189;-71
2021/10/03 07:04:32;;;;;;;39.13;20.05;;;;;;;13.41;93.42;101358.41;6366099;28;20258;-71
2021/10/03 07:07:36;;;;;;;34.65;18.58;;;;;;;13.44;93.30;101357.13;6366419;28;20186;-71
2021/10/03 07:10:41;;;;;;;35.60;18.65;;;;;;;13.49;92.85;101360.88;6365231;28;20490;-72
2021/10/03 07:13:45;;;;;;;33.25;18.20;;;;;;;13.46;92.84;101350.38;6366514;28;20220;-71
2021/10/03 07:16:51;;;;;;;33.67;18.95;;;;;;;13.43;93.33;101361.78;6366364;28;20228;-71
2021/10/03 07:19:55;;;;;;;29.50;18.80;;;;;;;13.43;93.95;101367.25;6365986;28;20197;-72
2021/10/03 07:22:59;;;;;;;37.25;18.17;;;;;;;13.42;94.03;101365.59;6365815;28;20454;-72
2021/10/03 07:26:05;;;;;;;31.85;18.23;;;;;;;13.45;93.67;101356.94;6365731;28;20183;-71
2021/10/03 07:29:12;;;;;;;33.33;19.35;;;;;;;13.22;95.13;101364.91;6365600;28;20186;-71
2021/10/03 07:32:18;;;;;;;32.85;18.58;;;;;;;13.30;95.19;101342.69;6365210;28;20189;-71
2021/10/03 07:35:27;;;;;;;29.45;18.55;;;;;;;13.34;95.04;101357.63;6363521;28;20470;-71
2021/10/03 07:38:31;;;;;;;33.28;17.98;;;;;;;13.33;95.16;101345.00;6364690;28;20241;-71
2021/10/03 07:41:36;;;;;;;32.83;18.92;;;;;;;13.32;95.28;101361.66;6364072;28;20490;-71
2021/10/03 07:44:40;;;;;;;30.80;18.23;;;;;;;13.33;95.96;101353.22;6364235;28;20189;-71
2021/10/03 07:47:46;;;;;;;40.03;19.48;;;;;;;13.36;95.90;101362.88;6365139;28;20265;-71
2021/10/03 07:50:50;;;;;;;35.50;18.10;;;;;;;13.38;95.82;101350.63;6364792;28;20182;-71
2021/10/03 07:53:54;;;;;;;31.55;18.23;;;;;;;13.45;95.59;101359.66;6364001;28;20526;-71
2021/10/03 07:56:58;;;;;;;35.75;18.98;;;;;;;13.32;96.73;101361.66;6365249;28;20182;-71
2021/10/03 08:00:04;;;;;;;28.52;18.45;;;;;;;13.40;96.63;101351.28;6365118;28;20182;-71
2021/10/03 08:03:17;;;;;;;33.08;19.02;;;;;;;13.31;97.28;101341.63;6363849;28;20466;-71
2021/10/03 08:06:21;;;;;;;32.15;18.27;;;;;;;13.42;96.56;101338.19;6363757;28;20402;-71
2021/10/03 08:09:25;;;;;;;35.72;17.92;;;;;;;13.46;96.32;101344.88;6364565;28;20271;-71
2021/10/03 08:12:29;;;;;;;32.78;18.65;;;;;;;13.39;96.91;101327.66;6372398;27;20414;-71
2021/10/03 08:15:34;;;;;;;32.85;18.75;;;;;;;13.40;97.05;101306.56;6388866;27;20390;-71
2021/10/03 08:18:39;;;;;;;27.60;17.10;;;;;;;13.45;96.76;101321.28;6390073;27;20253;-71
2021/10/03 08:21:44;;;;;;;35.13;18.23;;;;;;;13.40;97.37;101323.88;6388875;27;20362;-71
2021/10/03 08:24:48;;;;;;;32.35;17.58;;;;;;;13.40;97.78;101329.34;6388775;27;20485;-71
2021/10/03 08:27:52;;;;;;;33.97;18.30;;;;;;;13.45;97.32;101337.75;6389843;27;20185;-71
2021/10/03 08:30:56;;;;;;;33.88;17.67;;;;;;;13.50;96.83;101340.66;6390245;27;20213;-72
2021/10/03 08:34:02;;;;;;;34.35;18.30;;;;;;;13.60;96.63;101331.91;6389926;27;20226;-71
2021/10/03 08:37:07;;;;;;;33.83;18.73;;;;;;;13.56;96.66;101345.22;6388328;27;20203;-71
2021/10/03 08:40:13;;;;;;;35.00;18.05;;;;;;;13.60;96.29;101346.47;6388952;27;20228;-71
2021/10/03 08:43:18;;;;;;;30.13;17.33;;;;;;;13.70;96.04;101341.31;6389315;27;20182;-70
2021/10/03 08:46:25;;;;;;;58.45;33.20;;;;;;;13.79;96.38;101344.56;6389315;27;20284;-71
2021/10/03 08:49:30;;;;;;;33.08;17.58;;;;;;;13.72;95.85;101344.66;6389291;27;20253;-71
2021/10/03 08:52:34;;;;;;;30.58;16.98;;;;;;;13.80;95.67;101338.88;6388099;27;20518;-71
2021/10/03 08:55:39;;;;;;;29.67;17.98;;;;;;;13.87;95.36;101329.75;6389469;27;20181;-71
2021/10/03 08:58:43;;;;;;;27.45;16.33;;;;;;;13.86;94.77;101328.06;6387819;27;20231;-71
2021/10/03 09:01:50;;;;;;;29.20;16.02;;;;;;;13.91;94.97;101330.97;6388006;27;20377;-72
2021/10/03 09:04:58;;;;;;;29.45;16.60;;;;;;;13.95;95.10;101321.22;6388795;27;20186;-72
2021/10/03 09:08:06;;;;;;;31.75;17.67;;;;;;;13.92;95.17;101327.19;6389170;27;20185;-71
2021/10/03 09:11:12;;;;;;;31.35;16.27;;;;;;;13.99;94.17;101316.97;6387682;27;20377;-72
2021/10/03 09:14:36;;;;;;;37.15;17.55;;;;;;;13.94;95.13;101320.41;6387557;27;20256;-71
2021/10/03 09:17:40;;;;;;;34.28;17.63;;;;;;;13.92;94.56;101316.22;6388658;27;20182;-71
2021/10/03 09:20:46;;;;;;;25.63;16.15;;;;;;;13.98;94.26;101304.31;6388271;27;20480;-72
2021/10/03 09:23:57;;;;;;;27.30;16.00;;;;;;;14.00;94.83;101296.69;6388840;27;20189;-71
2021/10/03 09:27:03;;;;;;;29.55;16.33;;;;;;;14.00;94.53;101307.66;6386840;27;20481;-72
2021/10/03 09:30:12;;;;;;;25.90;15.98;;;;;;;14.03;94.19;101296.22;6388311;27;20186;-71
2021/10/03 09:33:16;;;;;;;30.55;16.73;;;;;;;14.04;94.14;101297.91;6388439;27;20212;-72
2021/10/03 09:36:24;;;;;;;25.63;16.02;;;;;;;14.24;93.17;101288.38;6388011;27;20181;-72
2021/10/03 09:39:40;;;;;;;29.20;14.98;;;;;;;14.28;93.50;101294.22;6388492;27;20229;-73
2021/10/03 09:42:53;;;;;;;23.38;14.93;;;;;;;14.27;93.07;101298.06;6388250;27;20182;-72
2021/10/03 09:45:57;;;;;;;26.20;15.43;;;;;;;14.28;93.77;101295.06;6388486;27;20182;-72
2021/10/03 09:49:03;;;;;;;26.30;15.63;;;;;;;14.37;92.92;101299.22;6387308;28;20535;-71
2021/10/03 09:52:09;;;;;;;30.08;14.93;;;;;;;14.39;92.37;101290.75;6389008;28;20227;-72
2021/10/03 09:55:14;;;;;;;28.13;14.48;;;;;;;14.38;92.06;101283.56;6387372;28;20186;-72
2021/10/03 09:58:19;;;;;;;25.90;14.48;;;;;;;14.33;93.19;101288.91;6387954;28;20206;-72
2021/10/03 10:01:23;;;;;;;24.00;14.15;;;;;;;14.43;92.23;101291.97;6386837;28;20226;-72
2021/10/03 10:04:28;;;;;;;30.52;14.30;;;;;;;14.44;92.07;101290.88;6388185;28;20188;-72
2021/10/03 10:07:33;;;;;;;24.80;14.13;;;;;;;14.52;91.89;101287.81;6386796;28;20443;-72
2021/10/03 10:10:37;;;;;;;28.27;14.13;;;;;;;14.60;91.64;101271.03;6388001;28;20222;-73
2021/10/03 10:13:51;;;;;;;24.88;15.10;;;;;;;14.75;90.58;101268.69;6388078;28;20192;-72
2021/10/03 10:17:02;;;;;;;24.00;14.15;;;;;;;14.77;90.21;101255.56;6387691;28;20561;-71
2021/10/03 10:20:34;;;;;;;18.63;14.07;;;;;;;14.77;90.32;101250.06;6387665;28;20210;-71
2021/10/03 10:23:40;;;;;;;27.98;13.98;;;;;;;14.83;90.10;101253.78;6386783;28;20190;-72
2021/10/03 10:26:45;;;;;;;25.70;14.05;;;;;;;14.87;90.37;101250.31;6388049;28;20181;-71
2021/10/03 10:29:50;;;;;;;19.73;13.93;;;;;;;14.94;89.44;101256.59;6386718;28;20252;-72
2021/10/03 10:33:10;;;;;;;22.45;13.40;;;;;;;15.02;89.25;101256.22;6387797;28;20249;-72
2021/10/03 10:36:17;;;;;;;24.42;14.65;;;;;;;14.89;89.41;101248.19;6387260;27;20186;-71
2021/10/03 10:39:29;;;;;;;27.58;14.80;;;;;;;14.95;89.59;101252.75;6373976;27;20233;-72
2021/10/03 10:42:33;;;;;;;25.55;14.65;;;;;;;15.00;89.14;101255.63;6366732;28;20214;-72
2021/10/03 10:45:40;;;;;;;23.33;14.45;;;;;;;15.13;88.47;101249.06;6366909;28;20245;-71
2021/10/03 10:48:45;;;;;;;24.58;14.90;;;;;;;15.15;88.54;101248.84;6366913;28;20187;-71
2021/10/03 10:52:09;;;;;;;20.75;14.27;;;;;;;15.13;88.50;101248.22;6367080;28;20258;-72
2021/10/03 10:55:29;;;;;;;21.45;13.98;;;;;;;15.18;88.46;101240.09;6366434;28;20269;-72
2021/10/03 10:58:34;;;;;;;22.05;14.15;;;;;;;15.26;88.49;101231.50;6365299;28;20457;-71
2021/10/03 11:01:42;;;;;;;20.20;14.43;;;;;;;15.30;87.80;101249.22;6365648;28;20204;-70
2021/10/03 11:04:46;;;;;;;20.52;13.68;;;;;;;15.36;88.27;101242.75;6365053;28;20416;-71
2021/10/03 11:08:06;;;;;;;29.55;14.27;;;;;;;15.37;87.34;101233.44;6366291;28;20256;-71
2021/10/03 11:11:21;;;;;;;18.23;12.75;;;;;;;15.47;86.14;101240.03;6365968;28;20227;-71
2021/10/03 11:14:26;;;;;;;22.10;13.80;;;;;;;15.54;85.80;101245.41;6365050;28;20466;-72
2021/10/03 11:17:31;;;;;;;22.58;13.40;;;;;;;15.64;85.13;101229.13;6364877;28;20523;-72
2021/10/03 11:20:49;;;;;;;21.92;12.60;;;;;;;15.56;85.23;101232.28;6365449;28;20210;-72
2021/10/03 11:23:55;;;;;;;21.70;12.85;;;;;;;15.60;85.28;101230.72;6365111;28;20269;-72
2021/10/03 11:27:03;;;;;;;18.27;12.93;;;;;;;15.64;85.04;101235.47;6365743;28;20183;-73
2021/10/03 11:30:09;;;;;;;18.27;12.82;;;;;;;15.63;84.80;101227.47;6364842;28;20476;-73
2021/10/03 11:33:15;;;;;;;23.77;11.98;;;;;;;15.65;85.55;101222.56;6366162;28;20261;-72
2021/10/03 11:36:19;;;;;;;19.25;12.27;;;;;;;15.72;83.93;101215.03;6365754;28;20182;-71
2021/10/03 11:39:37;;;;;;;18.20;12.35;;;;;;;15.81;84.78;101218.25;6381891;27;20239;-72
2021/10/03 11:42:48;;;;;;;20.02;12.15;;;;;;;15.78;84.17;101219.56;6391335;27;20249;-72
2021/10/03 11:45:53;;;;;;;19.73;12.15;;;;;;;15.81;83.68;101208.09;6390980;27;20181;-72
2021/10/03 11:49:01;;;;;;;22.08;12.00;;;;;;;15.78;83.49;101208.56;6389591;27;20250;-72
2021/10/03 11:52:07;;;;;;;26.77;13.20;;;;;;;15.67;83.75;101203.91;6389801;27;20249;-72
2021/10/03 11:55:15;;;;;;;19.90;12.40;;;;;;;15.90;83.48;101217.63;6390635;27;20189;-71
2021/10/03 11:58:22;;;;;;;18.02;12.85;;;;;;;15.78;83.78;101213.22;6390417;27;20182;-71
2021/10/03 12:01:29;;;;;;;23.67;12.60;;;;;;;15.85;83.85;101209.25;6390733;27;20205;-71
2021/10/03 12:04:33;;;;;;;24.35;12.15;;;;;;;15.78;84.38;101219.56;6390223;27;20181;-71
2021/10/03 12:07:38;;;;;;;23.52;13.50;;;;;;;15.68;84.54;101208.34;6390670;27;20181;-71
2021/10/03 12:10:44;;;;;;;17.92;11.90;;;;;;;15.85;84.20;101214.75;6389152;27;20208;-71
2021/10/03 12:13:58;;;;;;;19.63;12.48;;;;;;;15.70;84.94;101206.19;6390302;27;20192;-72
2021/10/03 12:17:02;;;;;;;20.30;12.60;;;;;;;15.76;84.29;101194.22;6390131;27;20181;-72
2021/10/03 12:20:07;;;;;;;24.88;13.00;;;;;;;15.91;84.02;101193.69;6388722;27;20512;-72
2021/10/03 12:23:12;;;;;;;20.10;12.27;;;;;;;15.77;85.16;101195.06;6390094;27;20186;-72
2021/10/03 12:26:20;;;;;;;18.13;12.07;;;;;;;15.83;84.10;101194.06;6390017;27;20188;-72
2021/10/03 12:29:27;;;;;;;18.58;11.95;;;;;;;15.87;84.14;101185.09;6389519;27;20181;-72
2021/10/03 12:32:31;;;;;;;23.02;12.18;;;;;;;15.75;84.34;101198.03;6388630;27;20238;-72
2021/10/03 12:35:38;;;;;;;19.63;11.93;;;;;;;15.84;84.10;101196.59;6389432;27;20188;-72
2021/10/03 12:38:42;;;;;;;19.67;12.15;;;;;;;15.85;84.20;101202.91;6389546;27;20301;-72
2021/10/03 12:41:48;;;;;;;22.13;12.38;;;;;;;15.75;84.46;101181.53;6389038;27;20217;-73
2021/10/03 12:44:56;;;;;;;23.27;12.55;;;;;;;15.74;85.65;101188.09;6389589;27;20213;-73
2021/10/03 12:48:00;;;;;;;26.42;12.40;;;;;;;15.68;85.40;101191.84;6389332;27;20219;-70
2021/10/03 12:51:04;;;;;;;21.13;12.27;;;;;;;15.73;85.26;101186.44;6389524;27;20265;-72
2021/10/03 12:54:10;;;;;;;24.38;12.43;;;;;;;15.72;85.80;101193.00;6388097;27;20181;-71
2021/10/03 12:57:15;;;;;;;16.45;11.82;;;;;;;15.63;86.40;101194.47;6389204;27;20181;-71
2021/10/03 13:00:21;;;;;;;24.38;13.10;;;;;;;15.53;86.99;101188.75;6388327;27;20212;-71
2021/10/03 13:03:26;;;;;;;20.20;13.10;;;;;;;15.54;88.36;101195.91;6389125;27;20185;-71
2021/10/03 13:06:31;;;;;;;23.45;12.98;;;;;;;15.72;86.65;101182.00;6388213;27;20182;-71
2021/10/03 13:09:35;;;;;;;22.80;12.70;;;;;;;15.64;87.85;101176.88;6387995;27;20181;-71
2021/10/03 13:12:39;;;;;;;21.20;13.23;;;;;;;15.48;88.78;101177.66;6387801;27;20579;-71
2021/10/03 13:15:45;;;;;;;18.45;12.52;;;;;;;15.55;87.77;101170.09;6388825;27;20223;-72
2021/10/03 13:18:49;;;;;;;18.63;12.18;;;;;;;15.49;88.47;101171.03;6388989;27;20260;-71
2021/10/03 13:21:53;;;;;;;25.65;13.98;;;;;;;15.57;88.29;101166.03;6388923;27;20236;-71
2021/10/03 13:24:57;;;;;;;28.33;14.40;;;;;;;15.40;90.02;101155.97;6388851;27;20185;-72
2021/10/03 13:28:01;;;;;;;25.85;13.68;;;;;;;15.41;89.98;101163.97;6387541;27;20188;-72
2021/10/03 13:31:07;;;;;;;21.88;13.05;;;;;;;15.45;89.90;101159.72;6387653;27;20185;-72
2021/10/03 13:34:11;;;;;;;22.35;12.38;;;;;;;15.41;89.21;101171.38;6388379;27;20188;-71
2021/10/03 13:37:15;;;;;;;24.13;12.82;;;;;;;15.47;88.33;101162.22;6374105;27;20367;-72
2021/10/03 13:40:20;;;;;;;24.67;13.40;;;;;;;15.45;89.50;101150.59;6361160;28;20279;-72
2021/10/03 13:43:27;;;;;;;18.75;12.13;;;;;;;15.37;89.21;101161.94;6363010;28;20189;-72
2021/10/03 13:46:33;;;;;;;19.33;12.00;;;;;;;15.36;87.76;101157.53;6362111;28;20249;-71
2021/10/03 13:49:37;;;;;;;28.58;12.93;;;;;;;15.39;87.81;101166.13;6362589;28;20190;-72
2021/10/03 13:52:43;;;;;;;18.65;12.63;;;;;;;15.30;88.92;101155.75;6362762;28;20193;-72
2021/10/03 13:55:47;;;;;;;19.90;12.15;;;;;;;15.28;89.18;101164.22;6362632;28;20220;-72
2021/10/03 13:58:51;;;;;;;23.85;12.13;;;;;;;15.36;88.02;101171.25;6362712;28;20189;-72
2021/10/03 14:01:57;;;;;;;19.27;11.77;;;;;;;15.28;89.21;101168.91;6361066;28;20407;-71
2021/10/03 14:05:01;;;;;;;20.38;12.48;;;;;;;15.31;88.47;101162.91;6362188;28;20249;-71